Terminal Aerodrome Forecast
Issued by NWS

Home | Current Version | Previous Version | Text Only | Print | Product List | Glossary On
Versions: 1 2 3 4 5 6 7 8 9 10 11 12 13 14 15 16 17
000
FTUS44 KLIX 231700
TAFMCB
TAF
KMCB 231727Z 2318/2418 VRB04KT P6SM SKC
     FM241100 00000KT P6SM BKN050
     FM241300 VRB03KT P6SM SCT050
     FM241600 18007KT P6SM SCT050=

USA.gov is the U.S. government's official web portal to all federal, state and local government web resources and services.